Legend — WDF9316 — position and weather

sailwx.info

Track history (hours):
 
Tides and Currents Weather Stations Pressure Air Temp Water Temp Dewpoint Dewpoint Depression Visibility Wind Speed Wind Dir Waves Ship Positions

Legend

Owner: Crowley Maritime, Seattle, WA. More information available from US FCC via Universal Licensing System and Coast Guard Vessel Documentation Center.

Last reported at 2014-Dec-22 19:32 UTC. Time now 2014-Dec-22 19:51 UTC.
Position N 26°06' W 080°07'.

Length 212 m; draft 7.8 m.

Type: Towing. MMSI: 366709000.

Date/timePositionNaut miles runAvg speedWind from/ knotsBaromVisibWave heightAir tempDewpointWater temp
2014-Dec-22 19:32N 26°06' W 080°07'0 0.0
2014-Dec-22 18:32N 26°06' W 080°07'0 0.0
2014-Dec-22 17:32N 26°06' W 080°07'0 0.0
2014-Dec-22 16:33N 26°06' W 080°07'3 2.7
2014-Dec-22 15:32N 26°07' W 080°05'0 0.1
2014-Dec-22 14:32N 26°07' W 080°05'0 0.0
2014-Dec-22 13:32N 26°07' W 080°05'0 0.0
2014-Dec-22 12:32N 26°07' W 080°05'0 0.0
2014-Dec-22 11:23N 26°07' W 080°05'0 0.0
2014-Dec-22 10:32N 26°07' W 080°05'0 0.0
2014-Dec-22 09:23N 26°07' W 080°05'0 0.0
2014-Dec-22 08:26N 26°07' W 080°05'0 0.0
2014-Dec-22 07:26N 26°07' W 080°04'0 0.0
2014-Dec-22 06:26N 26°07' W 080°04'0 0.0
2014-Dec-22 05:29N 26°07' W 080°04'0 0.5
2014-Dec-22 04:34N 26°07' W 080°04'1212.2
2014-Dec-22 03:33N 25°55' W 079°60'1616.0
2014-Dec-22 02:33N 25°39' W 079°59'  
2014-Dec-19 19:11N 29°55' W 089°56'5 0.5
2014-Dec-19 07:33N 29°57' W 090°01'6 5.8
2014-Dec-19 06:33N 29°55' W 090°08'3 0.1
2014-Dec-17 10:32N 29°57' W 090°09'31110.0
2014-Dec-16 03:23N 26°13' W 086°06'330 9.8
2014-Dec-14 17:33N 25°38' W 080°01'1212.4
2014-Dec-14 16:33N 25°51' W 080°01'1212.1
2014-Dec-14 15:34N 26°03' W 080°02'6 4.9
2014-Dec-14 14:25N 26°06' W 080°07'0 0.0
2014-Dec-14 13:25N 26°06' W 080°07'0 0.0
2014-Dec-14 12:28N 26°06' W 080°07'0 0.0
2014-Dec-14 11:28N 26°06' W 080°07'0 0.0
2014-Dec-14 10:28N 26°06' W 080°07'0 0.0
2014-Dec-14 09:31N 26°06' W 080°07'0 0.0
2014-Dec-14 08:31N 26°06' W 080°07'0 0.0
2014-Dec-14 07:31N 26°06' W 080°07'0 0.0
2014-Dec-14 06:31N 26°06' W 080°07'0 0.0
2014-Dec-14 05:31N 26°06' W 080°07'0 0.0
2014-Dec-14 04:31N 26°06' W 080°07'0 0.0
2014-Dec-14 03:31N 26°06' W 080°07'0 0.0
2014-Dec-14 02:22N 26°06' W 080°07'0 0.0
2014-Dec-14 01:22N 26°06' W 080°07'0 0.0
2014-Dec-14 00:25N 26°06' W 080°07'0 0.0
2014-Dec-13 23:25N 26°06' W 080°07'0 0.0
2014-Dec-13 22:25N 26°06' W 080°07'0 0.0
2014-Dec-13 21:28N 26°06' W 080°07'0 0.0
2014-Dec-13 20:28N 26°06' W 080°07'0 0.0
2014-Dec-13 19:28N 26°06' W 080°07'0 0.0
2014-Dec-13 18:31N 26°06' W 080°07'0 0.0
2014-Dec-13 17:31N 26°06' W 080°07'0 0.0
2014-Dec-13 16:31N 26°06' W 080°07'0 0.0
2014-Dec-13 15:31N 26°06' W 080°07'0 0.0
2014-Dec-13 14:31N 26°06' W 080°07'0 0.0
2014-Dec-13 13:33N 26°06' W 080°07'4 4.1
2014-Dec-13 12:33N 26°06' W 080°03'2 1.5
2014-Dec-13 11:19N 26°07' W 080°04'0 0.0
2014-Dec-13 10:25N 26°07' W 080°04'0 0.0
2014-Dec-13 09:25N 26°07' W 080°04'0 0.0
2014-Dec-13 08:25N 26°07' W 080°04'0 0.0
2014-Dec-13 07:28N 26°07' W 080°04'0 0.0
2014-Dec-13 06:28N 26°07' W 080°04'0 0.0
2014-Dec-13 05:28N 26°07' W 080°04'0 0.0
2014-Dec-13 04:31N 26°07' W 080°04'0 0.0
2014-Dec-13 03:31N 26°07' W 080°04'0 0.1
2014-Dec-13 02:31N 26°07' W 080°04'0 0.0
2014-Dec-13 01:31N 26°07' W 080°04'0 0.0
2014-Dec-13 00:31N 26°07' W 080°04'0 0.0
2014-Dec-12 23:31N 26°07' W 080°04'0 0.0
2014-Dec-12 22:31N 26°07' W 080°04'0 0.0
2014-Dec-12 21:22N 26°07' W 080°04'0 0.0
2014-Dec-12 20:25N 26°07' W 080°04'  
Track history (hours):
 
Tides and Currents Weather Stations Pressure Air Temp Water Temp Dewpoint Dewpoint Depression Visibility Wind Speed Wind Dir Waves Ship Positions

Legend

Owner: Crowley Maritime, Seattle, WA. More information available from US FCC via Universal Licensing System and Coast Guard Vessel Documentation Center.

Last reported at 2014-Dec-22 19:32 UTC. Time now 2014-Dec-22 19:51 UTC.
Position N 26°06' W 080°07'.

Length 212 m; draft 7.8 m.

Type: Towing. MMSI: 366709000.

Date/timePositionNaut miles runAvg speedWind from/ knotsBaromVisibWave heightAir tempDewpointWater temp
2014-Dec-22 19:32N 26°06' W 080°07'0 0.0
2014-Dec-22 18:32N 26°06' W 080°07'0 0.0
2014-Dec-22 17:32N 26°06' W 080°07'0 0.0
2014-Dec-22 16:33N 26°06' W 080°07'3 2.7
2014-Dec-22 15:32N 26°07' W 080°05'0 0.1
2014-Dec-22 14:32N 26°07' W 080°05'0 0.0
2014-Dec-22 13:32N 26°07' W 080°05'0 0.0
2014-Dec-22 12:32N 26°07' W 080°05'0 0.0
2014-Dec-22 11:23N 26°07' W 080°05'0 0.0
2014-Dec-22 10:32N 26°07' W 080°05'0 0.0
2014-Dec-22 09:23N 26°07' W 080°05'0 0.0
2014-Dec-22 08:26N 26°07' W 080°05'0 0.0
2014-Dec-22 07:26N 26°07' W 080°04'0 0.0
2014-Dec-22 06:26N 26°07' W 080°04'0 0.0
2014-Dec-22 05:29N 26°07' W 080°04'0 0.5
2014-Dec-22 04:34N 26°07' W 080°04'1212.2
2014-Dec-22 03:33N 25°55' W 079°60'1616.0
2014-Dec-22 02:33N 25°39' W 079°59'  
2014-Dec-19 19:11N 29°55' W 089°56'5 0.5
2014-Dec-19 07:33N 29°57' W 090°01'6 5.8
2014-Dec-19 06:33N 29°55' W 090°08'3 0.1
2014-Dec-17 10:32N 29°57' W 090°09'31110.0
2014-Dec-16 03:23N 26°13' W 086°06'330 9.8
2014-Dec-14 17:33N 25°38' W 080°01'1212.4
2014-Dec-14 16:33N 25°51' W 080°01'1212.1
2014-Dec-14 15:34N 26°03' W 080°02'6 4.9
2014-Dec-14 14:25N 26°06' W 080°07'0 0.0
2014-Dec-14 13:25N 26°06' W 080°07'0 0.0
2014-Dec-14 12:28N 26°06' W 080°07'0 0.0
2014-Dec-14 11:28N 26°06' W 080°07'0 0.0
2014-Dec-14 10:28N 26°06' W 080°07'0 0.0
2014-Dec-14 09:31N 26°06' W 080°07'0 0.0
2014-Dec-14 08:31N 26°06' W 080°07'0 0.0
2014-Dec-14 07:31N 26°06' W 080°07'0 0.0
2014-Dec-14 06:31N 26°06' W 080°07'0 0.0
2014-Dec-14 05:31N 26°06' W 080°07'0 0.0
2014-Dec-14 04:31N 26°06' W 080°07'0 0.0
2014-Dec-14 03:31N 26°06' W 080°07'0 0.0
2014-Dec-14 02:22N 26°06' W 080°07'0 0.0
2014-Dec-14 01:22N 26°06' W 080°07'0 0.0
2014-Dec-14 00:25N 26°06' W 080°07'0 0.0
2014-Dec-13 23:25N 26°06' W 080°07'0 0.0
2014-Dec-13 22:25N 26°06' W 080°07'0 0.0
2014-Dec-13 21:28N 26°06' W 080°07'0 0.0
2014-Dec-13 20:28N 26°06' W 080°07'0 0.0
2014-Dec-13 19:28N 26°06' W 080°07'0 0.0
2014-Dec-13 18:31N 26°06' W 080°07'0 0.0
2014-Dec-13 17:31N 26°06' W 080°07'0 0.0
2014-Dec-13 16:31N 26°06' W 080°07'0 0.0
2014-Dec-13 15:31N 26°06' W 080°07'0 0.0
2014-Dec-13 14:31N 26°06' W 080°07'0 0.0
2014-Dec-13 13:33N 26°06' W 080°07'4 4.1
2014-Dec-13 12:33N 26°06' W 080°03'2 1.5
2014-Dec-13 11:19N 26°07' W 080°04'0 0.0
2014-Dec-13 10:25N 26°07' W 080°04'0 0.0
2014-Dec-13 09:25N 26°07' W 080°04'0 0.0
2014-Dec-13 08:25N 26°07' W 080°04'0 0.0
2014-Dec-13 07:28N 26°07' W 080°04'0 0.0
2014-Dec-13 06:28N 26°07' W 080°04'0 0.0
2014-Dec-13 05:28N 26°07' W 080°04'0 0.0
2014-Dec-13 04:31N 26°07' W 080°04'0 0.0
2014-Dec-13 03:31N 26°07' W 080°04'0 0.1
2014-Dec-13 02:31N 26°07' W 080°04'0 0.0
2014-Dec-13 01:31N 26°07' W 080°04'0 0.0
2014-Dec-13 00:31N 26°07' W 080°04'0 0.0
2014-Dec-12 23:31N 26°07' W 080°04'0 0.0
2014-Dec-12 22:31N 26°07' W 080°04'0 0.0
2014-Dec-12 21:22N 26°07' W 080°04'0 0.0
2014-Dec-12 20:25N 26°07' W 080°04'  

Dump ship's entire track history